Nearby METAR Reports

 

KPBH - Phillips, Wisconsin, USA
Distance from station: SE 13mi, 21km
Updated: 02/20/2018 2:55pm
Overcast
Overcast
 Wind from W
Wind: W 7 mph , 11 km/h
Temperature: 23°F , -5°C
Wind Chill: 15°F , -9°C
Dew Point: 21°F , -6°C
Humidity: 93%
Barometer: 29.85 inHg , 1010.8 hPa
Clouds: Overcast
Visibility: 10 miles , 16 km
Cloud details: Overcast 800 ft
2018/02/20 20:55 KPBH 202055Z AUTO 26006KT 10SM OVC008 M05/M06 A2985 RMK AO2 T10531060
KRCX - Ladysmith/Rusk, Wisconsin, USA
Distance from station: SW 29mi, 46km
Updated: 02/20/2018 2:55pm
Overcast
Overcast
 Wind from W
Wind: W 10 mph , 17 km/h
Temperature: 25°F , -4°C
Wind Chill: 15°F , -9°C
Dew Point: 21°F , -6°C
Humidity: 86%
Barometer: 29.91 inHg , 1012.9 hPa
Clouds: Overcast
Visibility: 10 miles , 16 km
Cloud details: Overcast 1200 ft
2018/02/20 20:55 KRCX 202055Z AUTO 27009KT 10SM OVC012 M04/M06 A2991 RMK AO2 T10431064
 
KD25 - Manitowish Water, Wisconsin, USA
Distance from station: ENE 41mi, 66km
Updated: 02/20/2018 2:55pm
Overcast
Overcast
 Wind from WNW
Wind: WNW 9 mph , 15 km/h
Temperature: 23°F , -5°C
Wind Chill: 13°F , -11°C
Dew Point: 23°F , -5°C
Humidity: 100%
Barometer: 29.82 inHg , 1009.8 hPa
Clouds: Overcast
Visibility: 10 miles , 16 km
Cloud details: Overcast 900 ft
2018/02/20 20:55 KD25 202055Z AUTO 30008KT 10SM OVC009 M05/M05 A2982 RMK AO2 T10521052
KHYR - Hayward, Wisconsin, USA
Distance from station: WNW 42mi, 68km
Updated: 02/20/2018 2:53pm
Overcast
Overcast
 Wind from varies
Wind: varies 3 mph , 6 km/h
Temperature: 19°F , -7°C
Dew Point: 16°F , -9°C
Humidity: 86%
Barometer: 29.90 inHg , 1012.5 hPa
Clouds: Overcast
Visibility: 10 miles , 16 km
Cloud details: Overcast 700 ft
2018/02/20 20:53 KHYR 202053Z AUTO VRB03KT 10SM OVC007 M07/M09 A2990 RMK AO2 SLP149 T10671094 53023 $
 
KARV - Minocqua/Woodruf, Wisconsin, USA
Distance from station: E 44mi, 71km
Updated: 02/20/2018 2:55pm
Overcast
Overcast
 Wind from NW
Wind: NW 7 mph , 11 km/h
Temperature: 25°F , -4°C
Wind Chill: 17°F , -8°C
Dew Point: 23°F , -5°C
Humidity: 93%
Barometer: 29.81 inHg , 1009.5 hPa
Clouds: Overcast
Visibility: 10 miles , 16 km
Cloud details: Overcast 800 ft
2018/02/20 20:55 KARV 202055Z AUTO 31006KT 10SM OVC008 M04/M05 A2981 RMK AO2 T10401052
KTKV - Tomahawk Regnl, Wisconsin, USA
Distance from station: ESE 46mi, 74km
Updated: 02/20/2018 2:55pm
Overcast
Overcast
 Wind from W
Wind: W 12 mph , 19 km/h, Gust: 17 mph , 28 km/h
Temperature: 25°F , -4°C
Wind Chill: 14°F , -10°C
Dew Point: 23°F , -5°C
Humidity: 93%
Barometer: 29.84 inHg , 1010.5 hPa
Clouds: Overcast
Visibility: 10 miles , 16 km
Cloud details: Overcast 900 ft
2018/02/20 20:55 KTKV 202055Z AUTO 27010G15KT 10SM OVC009 M04/M05 A2984 RMK AO2 T10391054